Harrisburg International Airport (MDT/KMDT)

Map

Destinations

Information

Location
Harrisburg, PA
Local Time
14:18 / 2:18 pm
GMT Time
18:18 / 6:18 pm
Gates
Unassigned
No FAA reported delays
METAR KMDT 201756Z 35010KT 300V020 10SM CLR 29/18 A2993 RMK AO2 SLP134 T02890178 10289 20211 58012
TAF KMDT 201727Z 2018/2118 32008KT P6SM SCT150 FM210000 33004KT P6SM SKC FM210900 31003KT 5SM BR SKC FM211200 VRB03KT P6SM SKC